Dalton City, Illinois
Current Conditions -  °F | °C
As of 7:54 AM on Monday 20 Oct 2014 (Local Time) from KDEC Reporting Station
Clear Clear  
Wind Chill: 53°   Ceiling: Unl
Heat Index: 53°   Visibility: 10mi
Dew Point: 48°   Wind: 13mph
Humidity: 83%   Direction: 240°WSW
Pressure: 29.92"   Gusts: NA
Location:  39.71°N, 88.8°W
Report Text: KDEC 201254Z 24011KT 10SM CLR 12/09 A2992 RMK AO2 SLP133 T01170089
Loading
Personal Weather Stations






























Interactive Weather Map
Tropical Storm Tracking
New forecast layout! Learn more

10-Day Weather Forecast

Advertisements
Track Severe Weather on mobile